Time;durP1;ratioP1;P1;durP2;ratioP2;P2;SDS_P1;SDS_P2;PMS_P1;PMS_P2;Temp;Humidity;BMP_temperature;BMP_pressure;BME280_temperature;BME280_humidity;BME280_pressure;Samples;Min_cycle;Max_cycle;Signal;HPM_P1;HPM_P2
2023/01/21 08:51:00;;;;;;;;;49.67;42.00;;;;;2.41;64.30;102617.69;1943212;29;3568052;-88
2023/01/21 09:19:38;;;;;;;;;55.00;44.50;;;;;2.59;63.83;102638.16;1948547;28;2861744;-87
2023/01/21 09:23:37;;;;;;;;;;;;;;;;;;;;;
2023/01/21 09:33:58;;;;;;;;;61.50;47.50;;;;;2.66;63.96;102644.44;1944238;28;2863846;-86
2023/01/21 09:37:38;;;;;;;;;61.33;48.00;;;;;2.73;63.28;102661.09;1966805;28;3612830;-86
2023/01/21 09:54:36;;;;;;;;;58.00;43.00;;;;;2.85;62.82;102696.06;1941117;29;2881515;-85
2023/01/21 09:56:08;;;;;;;;;43.00;37.00;;;;;2.86;63.32;102697.84;1923354;29;2842978;-85
2023/01/21 09:57:50;;;;;;;;;59.33;44.00;;;;;2.88;62.72;102696.16;1936313;29;3604449;-84
2023/01/21 10:10:37;;;;;;;;;42.50;38.50;;;;;3.08;62.90;102740.06;1908348;29;2831524;-87
2023/01/21 10:12:30;;;;;;;;;46.00;36.00;;;;;3.06;62.13;102724.44;1917388;29;3614858;-88
2023/01/21 10:14:39;;;;;;;;;;;;;;;;;;;;;
2023/01/21 10:18:37;;;;;;;;;;;;;;;;;;;;;
2023/01/21 10:20:23;;;;;;;;;;;;;;;;;;;;;
2023/01/21 10:24:45;;;;;;;;;;;;;;;;;;;;;
2023/01/21 10:32:47;;;;;;;;;55.50;42.00;;;;;3.34;62.18;102743.44;2235045;23;2864647;-87
2023/01/21 10:37:02;;;;;;;;;47.50;38.50;;;;;3.38;61.06;102734.03;1913367;29;2862857;-87
2023/01/21 10:38:57;;;;;;;;;55.67;41.33;;;;;3.37;61.00;102727.94;1915240;29;3601281;-85
2023/01/21 10:40:56;;;;;;;;;;;;;;;;;;;;;
2023/01/21 10:53:56;;;;;;;;;52.00;42.50;;;;;3.37;61.29;102732.25;1909351;29;2847253;-86
2023/01/21 11:01:49;;;;;;;;;42.00;36.00;;;;;3.52;60.71;102739.63;1907563;29;2836760;-86
2023/01/21 11:03:37;;;;;;;;;43.50;36.00;;;;;3.54;60.92;102729.25;1931661;29;2868411;-87
2023/01/21 11:04:50;;;;;;;;;45.67;37.00;;;;;3.53;60.75;102736.19;1901470;29;3599742;-86
2023/01/21 11:08:40;;;;;;;;;53.00;37.50;;;;;3.57;61.08;102737.16;1893164;29;2860711;-88
2023/01/21 11:10:18;;;;;;;;;47.00;36.67;;;;;3.59;60.96;102738.97;1891751;29;3619018;-89
2023/01/21 11:28:55;;;;;;;;;49.33;39.33;;;;;3.83;60.16;102742.22;1908866;29;3581540;-86
2023/01/21 11:32:50;;;;;;;;;43.00;38.00;;;;;3.83;60.30;102737.91;1910368;29;2844024;-87
2023/01/21 11:34:36;;;;;;;;;38.67;31.33;;;;;3.85;60.28;102737.06;1907236;29;3605476;-85
2023/01/21 11:36:19;;;;;;;;;45.50;33.50;;;;;3.88;60.47;102739.72;1914405;29;2883687;-89
2023/01/21 11:38:15;;;;;;;;;;;;;;;;;;;;;
2023/01/21 11:42:02;;;;;;;;;47.00;36.00;;;;;3.92;59.56;102745.09;1943069;29;2863874;-87
2023/01/21 11:43:34;;;;;;;;;50.00;38.00;;;;;3.92;59.54;102746.81;1898749;29;3609639;-85
2023/01/21 11:58:39;;;;;;;;;40.00;34.00;;;;;4.19;59.12;102730.16;1830930;30;2861784;-89
2023/01/21 12:41:58;;;;;;;;;38.00;31.00;;;;;4.56;57.82;102719.81;1914586;29;2864905;-88
2023/01/21 13:27:50;;;;;;;;;49.50;37.50;;;;;4.86;56.26;102735.25;1878401;29;2837784;-86
2023/01/21 14:02:09;;;;;;;;;21.83;16.50;;;;;5.20;54.43;102737.72;1963109;29;1830530;-88
2023/01/21 14:06:38;;;;;;;;;32.33;27.00;;;;;5.16;55.28;102731.59;1938387;29;3588782;-87
2023/01/21 14:21:09;;;;;;;;;24.33;18.00;;;;;5.18;53.47;102743.78;1945567;29;3568308;-86
2023/01/21 14:23:20;;;;;;;;;35.00;25.00;;;;;5.18;54.34;102749.00;1944274;29;3594002;-87
2023/01/21 14:42:41;;;;;;;;;31.50;24.00;;;;;5.27;53.63;102750.06;1931727;29;2854484;-84
2023/01/21 15:40:31;;;;;;;;;33.33;26.00;;;;;5.29;52.01;102770.09;1992135;23;3597226;-87
2023/01/21 16:31:05;;;;;;;;;27.00;25.50;;;;;4.95;51.94;102840.59;1953295;28;2840983;-86
2023/01/21 16:33:16;;;;;;;;;;;;;;;;;;;;;
2023/01/21 16:57:21;;;;;;;;;33.00;29.50;;;;;4.75;52.17;102849.63;1969608;28;2853501;-87
2023/01/21 17:01:25;;;;;;;;;37.50;30.00;;;;;4.78;52.65;102852.31;1928955;28;2856550;-86
2023/01/21 17:03:32;;;;;;;;;;;;;;;;;;;;;
2023/01/21 17:05:03;;;;;;;;;30.33;26.00;;;;;4.72;52.46;102859.13;1908802;29;3580477;-86
2023/01/21 17:06:25;;;;;;;;;27.50;17.00;;;;;4.66;52.54;102848.56;1921642;29;2843042;-84
2023/01/21 17:07:47;;;;;;;;;27.00;24.00;;;;;4.65;52.94;102857.19;1923413;29;3569003;-86
2023/01/21 17:09:12;;;;;;;;;29.67;24.00;;;;;4.64;52.77;102860.66;1951880;29;3592989;-84
2023/01/21 17:11:31;;;;;;;;;;;;;;;;;;;;;
2023/01/21 17:13:16;;;;;;;;;30.00;25.00;;;;;4.59;53.11;102854.44;1917755;29;3600284;-83
2023/01/21 17:14:34;;;;;;;;;34.33;27.00;;;;;4.57;53.52;102863.91;1952083;29;3598273;-86
2023/01/21 17:16:55;;;;;;;;;;;;;;;;;;;;;
2023/01/21 17:18:37;;;;;;;;;44.67;27.67;;;;;4.52;53.47;102869.00;1903610;29;3613833;-86
2023/01/21 17:22:32;;;;;;;;;32.00;25.50;;;;;4.50;53.49;102863.78;1914919;29;2856531;-86
2023/01/21 17:27:23;;;;;;;;;;;;;;;;;;;;;
2023/01/21 17:29:18;;;;;;;;;33.67;23.33;;;;;4.44;53.96;102866.22;1876486;29;3579742;-84
2023/01/21 17:33:25;;;;;;;;;33.67;23.67;;;;;4.45;54.60;102873.19;1921979;29;3603353;-85
2023/01/21 17:35:07;;;;;;;;;37.00;28.67;;;;;4.47;54.37;102870.63;1929748;29;3601341;-85
2023/01/21 17:36:32;;;;;;;;;37.00;31.00;;;;;4.44;54.67;102875.75;1943699;29;2850282;-83
2023/01/21 17:37:53;;;;;;;;;44.33;34.33;;;;;4.42;54.61;102882.63;1928662;29;3608600;-83
2023/01/21 17:39:22;;;;;;;;;33.50;31.00;;;;;4.38;54.67;102877.34;1913484;29;2856515;-85
2023/01/21 17:45:45;;;;;;;;;44.00;34.50;;;;;4.35;55.27;102887.66;1929133;29;2866248;-86
2023/01/21 17:46:56;;;;;;;;;38.50;33.00;;;;;4.36;54.94;102889.44;1883361;29;2864893;-85
2023/01/21 17:54:28;;;;;;;;;43.50;35.00;;;;;4.30;55.92;102901.41;1892462;29;2865997;-86
2023/01/21 17:56:01;;;;;;;;;50.00;37.00;;;;;4.27;55.88;102895.25;1903340;29;2851331;-86
2023/01/21 17:57:38;;;;;;;;;42.00;37.00;;;;;4.22;55.69;102896.84;1926486;28;3581512;-85
2023/01/21 17:58:52;;;;;;;;;44.00;38.00;;;;;4.21;55.69;102895.09;1961989;28;3560717;-86
2023/01/21 18:00:45;;;;;;;;;46.50;35.00;;;;;4.22;55.77;102896.84;1958821;28;2861089;-85
2023/01/21 18:02:01;;;;;;;;;39.67;34.67;;;;;4.23;56.42;102901.22;1935632;28;3607563;-84
2023/01/21 18:03:26;;;;;;;;;43.33;35.00;;;;;4.21;56.32;102899.41;1943820;28;3593010;-85
2023/01/21 18:04:37;;;;;;;;;44.00;35.50;;;;;4.16;56.19;102894.06;1936936;28;2861735;-85
2023/01/21 18:05:48;;;;;;;;;37.00;27.00;;;;;4.15;56.87;102900.09;1944453;28;2853411;-85
2023/01/21 18:07:16;;;;;;;;;43.60;33.60;;;;;4.13;55.94;102904.38;1948434;28;3615832;-85
2023/01/21 18:08:26;;;;;;;;;49.50;37.00;;;;;4.10;56.39;102904.31;1956046;28;2857625;-84
2023/01/21 18:09:39;;;;;;;;;50.00;37.00;;;;;4.08;56.32;102900.75;1947734;28;3620011;-85
2023/01/21 18:10:51;;;;;;;;;51.20;38.00;;;;;4.08;56.38;102909.47;1943816;28;3612752;-85
2023/01/21 18:12:03;;;;;;;;;43.00;35.20;;;;;4.07;56.46;102907.72;1950740;28;3592929;-85
2023/01/21 18:14:04;;;;;;;;;;;;;;;;;;;;;
2023/01/21 18:15:18;;;;;;;;;53.50;39.00;;;;;4.04;56.76;102911.09;1936037;28;2860670;-84
2023/01/21 18:16:33;;;;;;;;;47.00;37.00;;;;;4.00;57.14;102898.81;1936099;28;2860766;-85
2023/01/21 18:17:49;;;;;;;;;50.00;38.00;;;;;4.01;56.89;102910.13;1929234;28;2855878;-85
2023/01/21 18:19:05;;;;;;;;;41.80;34.00;;;;;3.99;56.78;102917.00;1975937;28;3584580;-84
2023/01/21 18:22:38;;;;;;;;;39.50;34.00;;;;;3.97;57.41;102909.16;1951325;29;2879424;-86
2023/01/21 18:23:51;;;;;;;;;51.00;39.00;;;;;3.95;57.73;102908.22;1929552;28;2853414;-85
2023/01/21 18:26:51;;;;;;;;;51.00;39.50;;;;;3.97;57.51;102911.75;1956221;28;2851378;-85
2023/01/21 18:28:43;;;;;;;;;47.50;37.00;;;;;3.96;57.34;102915.19;1967948;28;2839849;-85
2023/01/21 18:29:57;;;;;;;;;53.00;39.00;;;;;3.97;57.52;102910.88;1953195;29;2870112;-86
2023/01/21 18:31:09;;;;;;;;;45.67;39.00;;;;;3.96;57.51;102922.09;1945498;28;3589826;-85
2023/01/21 18:32:57;;;;;;;;;53.00;41.50;;;;;3.95;57.83;102921.25;1958892;28;2861720;-85
2023/01/21 18:34:11;;;;;;;;;58.67;41.67;;;;;3.92;57.90;102921.16;1934805;28;3625319;-86
2023/01/21 18:36:04;;;;;;;;;51.00;38.67;;;;;3.91;58.13;102927.16;1944004;28;3584619;-87
2023/01/21 18:37:28;;;;;;;;;51.33;38.67;;;;;3.87;58.04;102926.22;1960715;28;3592966;-86
2023/01/21 18:39:29;;;;;;;;;;;;;;;;;;;;;
2023/01/21 18:41:39;;;;;;;;;41.33;36.33;;;;;3.90;58.55;102935.84;1919602;29;3567000;-86
2023/01/21 18:42:54;;;;;;;;;53.50;40.00;;;;;3.88;58.28;102929.66;1966108;28;2869074;-83
2023/01/21 18:44:28;;;;;;;;;53.33;41.00;;;;;3.87;58.53;102930.53;1944728;28;3611710;-86
2023/01/21 18:45:45;;;;;;;;;51.33;43.67;;;;;3.83;58.22;102935.63;1932990;28;3602423;-86
2023/01/21 18:47:17;;;;;;;;;47.33;38.00;;;;;3.81;58.33;102933.81;1933602;28;3584627;-86
2023/01/21 18:48:54;;;;;;;;;53.67;42.00;;;;;3.78;58.71;102931.09;1965114;28;3608576;-85
2023/01/21 18:50:11;;;;;;;;;58.67;43.00;;;;;3.77;58.88;102935.44;1929351;28;3597443;-85
2023/01/21 18:51:21;;;;;;;;;56.00;42.50;;;;;3.77;58.47;102940.66;1936743;28;2849204;-85
2023/01/21 18:52:36;;;;;;;;;58.67;41.33;;;;;3.75;58.29;102938.84;1979744;28;3636060;-85
2023/01/21 18:53:47;;;;;;;;;55.33;43.67;;;;;3.71;58.41;102950.84;1944723;28;3597154;-83
2023/01/21 18:55:05;;;;;;;;;54.80;41.80;;;;;3.69;58.75;102936.91;1973289;28;3605417;-85
2023/01/21 18:56:17;;;;;;;;;56.00;42.00;;;;;3.65;59.13;102935.94;1937195;28;3617963;-85
2023/01/21 18:57:29;;;;;;;;;53.00;42.67;;;;;3.64;59.26;102939.38;1950105;28;3614843;-83
2023/01/21 18:58:41;;;;;;;;;55.67;40.33;;;;;3.62;59.14;102946.25;1960538;28;3613797;-82
2023/01/21 18:59:53;;;;;;;;;57.67;43.67;;;;;3.59;59.53;102939.22;1947626;28;3617943;-84
2023/01/21 19:01:08;;;;;;;;;48.33;38.33;;;;;3.58;59.74;102942.66;1950819;28;3583593;-85
2023/01/21 19:02:23;;;;;;;;;54.33;44.00;;;;;3.56;59.05;102936.53;1967907;28;3604426;-84
2023/01/21 19:03:37;;;;;;;;;56.67;41.33;;;;;3.56;59.45;102933.91;1967408;28;3624177;-85
2023/01/21 19:04:48;;;;;;;;;59.50;44.00;;;;;3.54;59.08;102935.59;1939647;28;2877406;-84
2023/01/21 19:06:02;;;;;;;;;58.33;47.33;;;;;3.57;59.97;102953.00;1945414;28;3622153;-84
2023/01/21 19:07:24;;;;;;;;;61.33;42.00;;;;;3.57;59.71;102955.63;1936158;28;3640843;-85
2023/01/21 19:08:35;;;;;;;;;61.00;46.00;;;;;3.54;59.22;102947.69;1938585;28;3630443;-85
2023/01/21 19:09:51;;;;;;;;;60.67;47.33;;;;;3.53;59.53;102952.00;1958458;28;3629445;-87
2023/01/21 19:11:18;;;;;;;;;61.00;46.00;;;;;3.50;59.91;102946.75;1946138;28;3614801;-86
2023/01/21 19:12:29;;;;;;;;;61.00;44.00;;;;;3.48;59.68;102953.59;1943717;28;3617406;-84
2023/01/21 19:13:42;;;;;;;;;56.33;44.33;;;;;3.47;59.63;102944.91;1959957;28;3598129;-85
2023/01/21 19:15:06;;;;;;;;;;;;;;;;;;;;;
2023/01/21 19:16:24;;;;;;;;;64.00;44.00;;;;;3.48;59.50;102940.59;1938040;28;2875312;-86
2023/01/21 19:17:37;;;;;;;;;65.33;50.33;;;;;3.48;59.93;102949.28;1947001;28;3635708;-84
2023/01/21 19:18:53;;;;;;;;;58.33;42.00;;;;;3.45;59.73;102944.00;1941428;28;3599230;-86
2023/01/21 19:20:27;;;;;;;;;44.00;39.67;;;;;3.48;59.87;102951.00;1934272;28;3579417;-85
2023/01/21 19:21:47;;;;;;;;;55.33;44.00;;;;;3.47;59.57;102942.31;1961232;28;3591948;-86
2023/01/21 19:23:05;;;;;;;;;60.33;48.00;;;;;3.44;59.44;102937.00;1955569;28;3625626;-86
2023/01/21 19:24:19;;;;;;;;;55.33;42.67;;;;;3.43;59.93;102936.97;1940608;28;3624272;-85
2023/01/21 19:25:31;;;;;;;;;46.00;37.67;;;;;3.40;59.78;102931.66;1945850;28;3593051;-85
2023/01/21 19:26:45;;;;;;;;;58.67;46.33;;;;;3.41;60.18;102936.91;1968842;28;3616922;-84
2023/01/21 19:27:58;;;;;;;;;72.67;49.00;;;;;3.38;59.93;102935.09;1933140;28;3652338;-84
2023/01/21 19:29:32;;;;;;;;;56.00;45.33;;;;;3.37;59.80;102940.25;1939397;28;3606481;-84
2023/01/21 19:31:11;;;;;;;;;64.33;49.67;;;;;3.32;60.45;102950.50;1942217;28;3622102;-86
2023/01/21 19:32:23;;;;;;;;;55.67;41.00;;;;;3.29;60.19;102939.09;1940906;28;3613757;-84
2023/01/21 19:33:57;;;;;;;;;;;;;;;;;;;;;
2023/01/21 19:35:19;;;;;;;;;59.67;45.00;;;;;3.28;59.89;102939.94;1943325;28;3624203;-85
2023/01/21 19:36:30;;;;;;;;;66.00;47.67;;;;;3.30;60.70;102946.97;1933859;28;3634629;-85
2023/01/21 19:38:32;;;;;;;;;66.00;48.33;;;;;3.30;60.36;102941.75;1946687;28;3646079;-86
2023/01/21 19:39:23;;;;;;;;;73.00;50.67;;;;;3.29;59.69;102939.09;1941964;28;3649240;-83
2023/01/21 19:40:43;;;;;;;;;58.33;47.33;;;;;3.28;59.93;102939.94;1935689;28;3600235;-86
2023/01/21 19:42:02;;;;;;;;;65.33;50.33;;;;;3.24;59.88;102937.22;1938938;28;3623156;-86
2023/01/21 19:43:21;;;;;;;;;60.67;47.67;;;;;3.23;60.52;102935.47;1938581;28;3613798;-85
2023/01/21 19:45:14;;;;;;;;;64.67;47.00;;;;;3.23;60.05;102939.78;1943499;28;3640156;-85
2023/01/21 19:46:28;;;;;;;;;72.00;49.67;;;;;3.25;59.91;102953.72;1941442;28;3647092;-85
2023/01/21 19:47:41;;;;;;;;;57.67;45.00;;;;;3.25;60.10;102958.91;1939533;28;3600273;-85
2023/01/21 19:48:53;;;;;;;;;67.33;49.67;;;;;3.22;60.09;102964.91;1930907;28;3638767;-83
2023/01/21 19:50:08;;;;;;;;;62.67;47.00;;;;;3.21;60.29;102951.84;1952322;28;3625235;-84
2023/01/21 19:51:20;;;;;;;;;68.00;49.00;;;;;3.21;60.43;102959.66;1939915;28;3634637;-85
2023/01/21 19:52:36;;;;;;;;;69.67;53.33;;;;;3.18;60.40;102959.53;1959530;28;3626308;-83
2023/01/21 19:53:50;;;;;;;;;63.67;50.67;;;;;3.17;60.66;102955.16;1945949;28;3632589;-85
2023/01/21 19:55:03;;;;;;;;;56.67;43.67;;;;;3.14;60.19;102954.22;1946513;28;3617976;-84
2023/01/21 19:56:36;;;;;;;;;67.00;51.67;;;;;3.13;60.46;102968.06;1945318;28;3611677;-86
2023/01/21 20:00:37;;;;;;;;;68.67;52.67;;;;;3.08;60.81;102963.53;1923051;28;3632955;-87
2023/01/21 20:04:38;;;;;;;;;69.00;48.67;;;;;3.04;60.85;102979.00;1901270;29;3642092;-87
2023/01/21 20:12:22;;;;;;;;;68.33;51.00;;;;;3.03;61.46;102981.56;1903259;29;3626313;-86
2023/01/21 20:13:55;;;;;;;;;75.67;54.00;;;;;3.04;61.63;102983.31;1906408;29;3641925;-86
2023/01/21 20:15:34;;;;;;;;;71.00;53.00;;;;;3.01;60.87;102978.91;1899923;29;3629394;-86
2023/01/21 20:28:08;;;;;;;;;64.67;48.33;;;;;3.03;61.50;102986.78;1905209;29;3631522;-87
2023/01/21 20:32:12;;;;;;;;;65.33;49.33;;;;;3.01;60.50;102978.03;1889816;29;3626373;-88
2023/01/21 20:34:00;;;;;;;;;70.33;54.00;;;;;2.99;60.08;102982.28;1902845;29;3615853;-87
2023/01/21 20:35:31;;;;;;;;;60.67;49.00;;;;;2.97;60.97;102989.13;1901733;29;3612783;-88
2023/01/21 20:43:13;;;;;;;;;60.00;43.67;;;;;2.85;59.99;102987.88;1929715;29;3632594;-89
2023/01/21 20:47:37;;;;;;;;;;;;;;;;;;;;;
2023/01/21 20:48:50;;;;;;;;;60.67;44.00;;;;;2.82;60.05;103005.94;1920800;29;3624259;-84
2023/01/21 20:50:34;;;;;;;;;54.33;42.33;;;;;2.80;60.60;102992.03;1901357;29;3593401;-88
2023/01/21 20:52:18;;;;;;;;;57.67;41.33;;;;;2.75;60.52;103006.56;1926426;29;3607571;-84
2023/01/21 20:53:29;;;;;;;;;64.67;48.67;;;;;2.73;60.18;103011.69;1879160;29;3626289;-83
2023/01/21 21:04:52;;;;;;;;;63.00;46.67;;;;;2.74;60.33;102999.59;1898422;29;3623181;-84
2023/01/21 21:08:26;;;;;;;;;58.67;41.67;;;;;2.72;60.25;103001.25;1900434;29;3618003;-89
2023/01/21 21:16:19;;;;;;;;;62.33;42.67;;;;;2.69;60.58;102999.44;1906776;29;3638809;-87
2023/01/21 21:36:42;;;;;;;;;61.00;47.67;;;;;2.90;59.24;103017.50;1919412;29;3600223;-87
